Grafton, ND

8:12 AM CDT on July 24, 2014 (GMT -0500)
Grafton Municipal (KGAF) Elev 823 ft | 48.40 °N, 97.37 °W | Change Station

Current weather conditions updated 17 minutes ago

Clear
Clear
61 °F
Feels Like 61 °F
N
7
Wind Variable Wind from SSE

Today is forecast to be Much Warmer than yesterday. Periods of rain late tonight.

Today
High -- | Low -- °F
--% Chance of Precip.
Yesterday
High -- | Low -- °F
Precip. -- in
5:54 AM 9:17 PM
Waning Crescent, 5% visible
Pressure 30.06 in
Visibility 10.0 miles
Clouds Clear
Dew Point 59 °F
Humidity 94%
Rainfall 0.00 in
Snow Depth Not available.
UV 1 out of 12
Pollen 7.40 out of 12
Air Quality Not available.
Flu Activity Not available.
METAR KGAF 241255Z AUTO 15006KT 10SM CLR 16/15 A3006 RMK AO2

More Conditions Fewer Conditions

Pressure 30.06 in
Visibility 10.0 miles
Clouds Clear
Dew Point 59 °F
Humidity 94%
Rainfall 0.00 in
Snow Depth Not available.
UV 1 out of 12
Pollen 7.40 out of 12
Air Quality Not available.
Flu Activity Not available.
METAR KGAF 241255Z AUTO 15006KT 10SM CLR 16/15 A3006 RMK AO2

More Conditions Fewer Conditions

10-Day Weather Forecast

Almanac

Astronomy

Jul. 24, 2014 Rise Set
Actual Time 5:54 AM CDT 9:17 PM CDT
Civil Twilight 5:16 AM CDT 9:55 PM CDT
Nautical Twilight 4:25 AM CDT 10:45 PM CDT
Astronomical Twilight 3:18 AM CDT 11:51 PM CDT
Moon 4:05 AM CDT 7:30 PM CDT
Length of Visible Light 16h 39m
Length of Day
15h 22m
Tomorrow will be 2m 27s shorter.
Waning Crescent, 5% of the Moon is Illuminated
Today
Waning Crescent
Jul 26
New
Aug 3
First Quarter
Aug 10
Full
Aug 17
Last Quarter

Today's Extremes

State Highs State Lows

Community

WunderPhotos

Upload Photos

1,736,994 photos uploaded!

Nearby

Snow Depth

Station Depth Elevation
No new snow has been reported.

Earthquake Activity

City Distance Mag. Time & Date
No recent earthquake activity has been reported nearby.
Minimum magnitude displayed is 2.5.

Coastal Water Temperatures

Place Temperature
No Stations Reporting

Nearby Weather Stations

Station Location Temp. Dew Point Humidity Wind Precip. Elev Updated Type
Hoople nd, Hoople, ND 60.6 °F 57 °F 88% WSW  at  3.0 mph 0.00 in / hr 870 ft 8:00 AM CDT Normal

Show More Stations Show Fewer Stations